Time;durP1;ratioP1;P1;durP2;ratioP2;P2;SDS_P1;SDS_P2;PMS_P1;PMS_P2;Temp;Humidity;BMP_temperature;BMP_pressure;BME280_temperature;BME280_humidity;BME280_pressure;Samples;Min_cycle;Max_cycle;Signal;HPM_P1;HPM_P2
2023/01/18 00:00:17;;;;;;;5.97;2.55;;;;;;;;;;5098937;28;20407;-70
2023/01/18 00:02:45;;;;;;;5.18;1.50;;;;;;;;;;5089116;28;20051;-70
2023/01/18 00:05:12;;;;;;;5.32;1.50;;;;;;;;;;5100721;28;20489;-70
2023/01/18 00:07:38;;;;;;;7.43;2.55;;;;;;;;;;5090991;28;20055;-70
2023/01/18 00:10:05;;;;;;;7.15;1.67;;;;;;;;;;5100050;28;20036;-70
2023/01/18 00:12:32;;;;;;;8.27;1.90;;;;;;;;;;5098853;28;20044;-70
2023/01/18 00:14:59;;;;;;;2.85;1.58;;;;;;;;;;5101888;28;20081;-70
2023/01/18 00:17:25;;;;;;;6.75;1.70;;;;;;;;;;5101320;28;20053;-70
2023/01/18 00:19:51;;;;;;;6.35;1.75;;;;;;;;;;5099785;28;20071;-70
2023/01/18 00:22:17;;;;;;;7.68;2.13;;;;;;;;;;5100682;28;20051;-70
2023/01/18 00:24:43;;;;;;;4.53;1.80;;;;;;;;;;5088792;28;20126;-70
2023/01/18 00:27:09;;;;;;;6.70;2.33;;;;;;;;;;5099638;28;20050;-70
2023/01/18 00:29:36;;;;;;;8.88;3.97;;;;;;;;;;5092931;28;20048;-70
2023/01/18 00:32:02;;;;;;;4.97;1.58;;;;;;;;;;5101230;28;20080;-69
2023/01/18 00:34:28;;;;;;;6.70;1.95;;;;;;;;;;5099216;28;20048;-70
2023/01/18 00:36:54;;;;;;;6.13;2.15;;;;;;;;;;5100243;28;20036;-70
2023/01/18 00:39:20;;;;;;;7.22;2.20;;;;;;;;;;5099106;28;20119;-70
2023/01/18 00:44:33;;;;;;;5.50;2.15;;;;;;;;;;5100831;28;20044;-70
2023/01/18 00:46:59;;;;;;;12.77;2.75;;;;;;;;;;5098771;28;21340;-70
2023/01/18 00:49:25;;;;;;;6.07;2.20;;;;;;;;;;5101314;28;20130;-70
2023/01/18 00:51:51;;;;;;;11.80;3.42;;;;;;;;;;5097880;28;20032;-70
2023/01/18 00:54:18;;;;;;;5.50;2.10;;;;;;;;;;5101271;28;20042;-70
2023/01/18 00:56:44;;;;;;;7.82;2.00;;;;;;;;;;5102513;28;20054;-70
2023/01/18 00:59:10;;;;;;;5.63;1.92;;;;;;;;;;5085591;28;20039;-70
2023/01/18 01:01:36;;;;;;;5.15;2.20;;;;;;;;;;5100672;28;20090;-70
2023/01/18 01:06:47;;;;;;;9.93;2.08;;;;;;;;;;5099032;28;20538;-70
2023/01/18 01:09:15;;;;;;;5.47;1.83;;;;;;;;;;5098810;28;20172;-70
2023/01/18 01:12:31;;;;;;;8.55;2.67;;;;;;;;;;5101021;28;20082;-70
2023/01/18 01:28:13;;;;;;;6.05;1.95;;;;;;;;;;5099646;28;20047;-70
2023/01/18 01:30:39;;;;;;;6.00;2.10;;;;;;;;;;5102597;28;20043;-70
2023/01/18 01:33:05;;;;;;;10.40;1.90;;;;;;;;;;5102234;28;20032;-70
2023/01/18 01:35:31;;;;;;;9.82;2.17;;;;;;;;;;5092821;28;20127;-70
2023/01/18 01:37:58;;;;;;;6.03;2.28;;;;;;;;;;5102809;28;20402;-70
2023/01/18 01:40:24;;;;;;;6.82;2.33;;;;;;;;;;5084037;28;20052;-70
2023/01/18 01:42:50;;;;;;;6.93;2.03;;;;;;;;;;5085846;28;20055;-70
2023/01/18 01:45:18;;;;;;;11.93;3.67;;;;;;;;;;5068246;28;20064;-70
2023/01/18 01:47:46;;;;;;;4.85;1.77;;;;;;;;;;5064426;28;20048;-70
2023/01/18 01:50:23;;;;;;;10.60;1.75;;;;;;;;;;5083590;28;20050;-70
2023/01/18 01:52:49;;;;;;;7.35;2.65;;;;;;;;;;5065080;28;20058;-70
2023/01/18 01:55:20;;;;;;;5.82;1.88;;;;;;;;;;5092482;28;20036;-71
2023/01/18 01:57:49;;;;;;;12.45;2.80;;;;;;;;;;5087816;28;20154;-70
2023/01/18 02:00:18;;;;;;;9.05;1.83;;;;;;;;;;5083581;28;20051;-70
2023/01/18 02:02:46;;;;;;;7.97;1.80;;;;;;;;;;5066615;28;20041;-70
2023/01/18 02:05:13;;;;;;;9.27;2.40;;;;;;;;;;5066613;28;20058;-70
2023/01/18 02:07:39;;;;;;;8.68;1.65;;;;;;;;;;5083723;28;20040;-70
2023/01/18 02:10:06;;;;;;;4.05;1.70;;;;;;;;;;5066972;28;20050;-70
2023/01/18 02:12:32;;;;;;;5.88;1.70;;;;;;;;;;5085089;28;20040;-70
2023/01/18 02:14:59;;;;;;;6.75;1.80;;;;;;;;;;5062579;28;20622;-70
2023/01/18 02:17:37;;;;;;;9.50;2.00;;;;;;;;;;5083679;28;20069;-71
2023/01/18 02:20:18;;;;;;;4.20;1.80;;;;;;;;;;5085836;28;20051;-70
2023/01/18 02:22:54;;;;;;;5.60;1.90;;;;;;;;;;5084309;28;20075;-70
2023/01/18 02:25:28;;;;;;;6.72;1.83;;;;;;;;;;5092016;28;20032;-70
2023/01/18 02:28:13;;;;;;;6.80;1.73;;;;;;;;;;5087329;28;20044;-69
2023/01/18 02:30:58;;;;;;;7.93;1.45;;;;;;;;;;5082167;28;20044;-71
2023/01/18 02:33:40;;;;;;;6.97;1.48;;;;;;;;;;5088404;28;20391;-71
2023/01/18 02:36:07;;;;;;;6.63;1.65;;;;;;;;;;5085971;28;20173;-70
2023/01/18 02:38:39;;;;;;;7.88;1.73;;;;;;;;;;5085586;28;20381;-70
2023/01/18 02:41:12;;;;;;;6.22;1.80;;;;;;;;;;5084373;28;20090;-70
2023/01/18 02:46:39;;;;;;;9.18;2.00;;;;;;;;;;5094222;28;19919;-70
2023/01/18 02:49:07;;;;;;;5.85;1.65;;;;;;;;;;5100369;28;20470;-70
2023/01/18 02:51:35;;;;;;;5.57;1.95;;;;;;;;;;5099568;27;20051;-70
2023/01/18 02:54:02;;;;;;;3.28;1.55;;;;;;;;;;5102100;27;20112;-70
2023/01/18 02:56:32;;;;;;;5.20;1.80;;;;;;;;;;5101113;28;20043;-70
2023/01/18 02:59:01;;;;;;;7.30;1.73;;;;;;;;;;5101358;28;20387;-71
2023/01/18 03:01:30;;;;;;;5.13;1.70;;;;;;;;;;5091445;28;20253;-70
2023/01/18 03:03:59;;;;;;;3.50;1.48;;;;;;;;;;5099640;27;20146;-71
2023/01/18 03:06:27;;;;;;;9.32;1.80;;;;;;;;;;5093816;28;20047;-71
2023/01/18 03:08:54;;;;;;;4.22;1.80;;;;;;;;;;5100805;28;20043;-70
2023/01/18 03:11:24;;;;;;;6.88;1.60;;;;;;;;;;5098940;28;20051;-70
2023/01/18 03:13:57;;;;;;;6.47;1.88;;;;;;;;;;5101542;28;20126;-70
2023/01/18 03:16:25;;;;;;;4.18;1.80;;;;;;;;;;5098295;28;20044;-71
2023/01/18 03:19:00;;;;;;;8.50;2.38;;;;;;;;;;5099439;28;20040;-71
2023/01/18 03:21:30;;;;;;;5.40;2.05;;;;;;;;;;5099970;27;20093;-70
2023/01/18 03:23:57;;;;;;;9.07;2.60;;;;;;;;;;5090155;28;20181;-71
2023/01/18 03:26:24;;;;;;;8.63;2.65;;;;;;;;;;5100955;28;20035;-71
2023/01/18 03:34:28;;;;;;;7.03;2.60;;;;;;;;;;5090675;28;20087;-70
2023/01/18 03:36:55;;;;;;;10.10;2.17;;;;;;;;;;5100237;27;21101;-71
2023/01/18 03:39:27;;;;;;;16.10;3.85;;;;;;;;;;5100937;28;20480;-71
2023/01/18 03:41:56;;;;;;;11.15;2.58;;;;;;;;;;5098857;28;20101;-71
2023/01/18 03:44:25;;;;;;;6.57;2.35;;;;;;;;;;5101716;28;20119;-70
2023/01/18 03:46:51;;;;;;;7.28;2.65;;;;;;;;;;5098969;28;20494;-71
2023/01/18 03:49:17;;;;;;;10.02;2.42;;;;;;;;;;5101641;28;20134;-70
2023/01/18 03:51:54;;;;;;;5.90;2.40;;;;;;;;;;5097525;28;20054;-70
2023/01/18 03:54:45;;;;;;;5.88;2.97;;;;;;;;;;5100720;27;20043;-70
2023/01/18 03:57:16;;;;;;;6.13;2.42;;;;;;;;;;5099656;28;20067;-71
2023/01/18 03:59:42;;;;;;;8.80;2.50;;;;;;;;;;5091236;28;20388;-70
2023/01/18 04:02:09;;;;;;;17.50;3.90;;;;;;;;;;5090990;28;20044;-71
2023/01/18 04:04:35;;;;;;;5.15;2.35;;;;;;;;;;5099488;28;20104;-71
2023/01/18 04:07:01;;;;;;;6.88;2.60;;;;;;;;;;5091463;28;20108;-70
2023/01/18 04:09:27;;;;;;;9.75;3.15;;;;;;;;;;5098946;28;20055;-70
2023/01/18 04:11:53;;;;;;;10.05;3.00;;;;;;;;;;5088668;28;20040;-71
2023/01/18 04:14:20;;;;;;;8.68;2.75;;;;;;;;;;5102389;28;20048;-70
2023/01/18 04:16:46;;;;;;;6.72;2.88;;;;;;;;;;5101260;28;20082;-71
2023/01/18 04:19:12;;;;;;;11.82;3.53;;;;;;;;;;5100840;28;20039;-70
2023/01/18 04:21:38;;;;;;;9.02;3.15;;;;;;;;;;5098440;28;20367;-71
2023/01/18 04:24:05;;;;;;;8.23;3.55;;;;;;;;;;5100984;28;20111;-71
2023/01/18 04:26:33;;;;;;;11.15;3.63;;;;;;;;;;5101624;28;20086;-71
2023/01/18 04:28:59;;;;;;;11.50;3.58;;;;;;;;;;5091865;28;20047;-71
2023/01/18 04:31:25;;;;;;;9.85;3.30;;;;;;;;;;5100011;28;20052;-70
2023/01/18 04:33:51;;;;;;;7.35;3.20;;;;;;;;;;5090952;28;20065;-71
2023/01/18 04:36:19;;;;;;;7.80;4.00;;;;;;;;;;5094114;28;20044;-71
2023/01/18 04:38:45;;;;;;;9.98;4.85;;;;;;;;;;5101388;28;20394;-70
2023/01/18 04:41:11;;;;;;;11.00;4.45;;;;;;;;;;5098646;28;20151;-70
2023/01/18 04:43:37;;;;;;;20.02;4.80;;;;;;;;;;5099248;28;20686;-70
2023/01/18 04:46:04;;;;;;;9.82;4.03;;;;;;;;;;5091775;28;20479;-71
2023/01/18 04:48:30;;;;;;;8.90;4.10;;;;;;;;;;5098545;28;20047;-71
2023/01/18 04:50:56;;;;;;;10.70;4.50;;;;;;;;;;5098738;28;20044;-71
2023/01/18 04:53:22;;;;;;;15.32;4.50;;;;;;;;;;5100573;28;20076;-71
2023/01/18 04:55:48;;;;;;;12.18;4.30;;;;;;;;;;5098359;28;20039;-71
2023/01/18 04:58:15;;;;;;;20.15;5.22;;;;;;;;;;5098966;28;20405;-70
2023/01/18 05:00:41;;;;;;;13.15;5.07;;;;;;;;;;5097692;28;20046;-71
2023/01/18 05:03:08;;;;;;;12.88;6.45;;;;;;;;;;5100442;28;20039;-71
2023/01/18 05:05:34;;;;;;;16.05;5.20;;;;;;;;;;5104648;28;20051;-70
2023/01/18 05:08:00;;;;;;;14.98;6.28;;;;;;;;;;5103749;28;20032;-71
2023/01/18 05:10:26;;;;;;;14.48;5.18;;;;;;;;;;5093920;28;20054;-71
2023/01/18 05:12:52;;;;;;;15.68;5.68;;;;;;;;;;5104472;28;20503;-70
2023/01/18 05:15:18;;;;;;;13.02;5.20;;;;;;;;;;5106080;28;20384;-70
2023/01/18 05:17:44;;;;;;;12.77;5.50;;;;;;;;;;5101954;28;20040;-70
2023/01/18 05:20:11;;;;;;;14.98;5.85;;;;;;;;;;5103238;28;20031;-71
2023/01/18 05:22:38;;;;;;;16.88;5.97;;;;;;;;;;5102988;28;20403;-70
2023/01/18 05:25:04;;;;;;;28.77;6.63;;;;;;;;;;5094729;28;20040;-71
2023/01/18 05:27:30;;;;;;;13.27;5.97;;;;;;;;;;5103937;28;20043;-70
2023/01/18 05:29:57;;;;;;;12.13;6.18;;;;;;;;;;5101931;28;20040;-71
2023/01/18 05:32:23;;;;;;;10.23;5.72;;;;;;;;;;5095744;28;20052;-69
2023/01/18 05:34:49;;;;;;;13.40;5.22;;;;;;;;;;5100521;28;20077;-71
2023/01/18 05:37:15;;;;;;;9.10;5.10;;;;;;;;;;5094350;28;20545;-71
2023/01/18 05:39:41;;;;;;;14.63;5.47;;;;;;;;;;5108039;28;20487;-71
2023/01/18 05:42:07;;;;;;;13.25;5.15;;;;;;;;;;5106835;27;20466;-71
2023/01/18 05:44:34;;;;;;;14.43;6.80;;;;;;;;;;5104830;27;20084;-71
2023/01/18 05:47:00;;;;;;;14.63;5.53;;;;;;;;;;5106426;28;20131;-71
2023/01/18 05:49:28;;;;;;;13.02;5.53;;;;;;;;;;5104895;28;20088;-71
2023/01/18 05:51:54;;;;;;;15.13;5.85;;;;;;;;;;5105036;28;20047;-70
2023/01/18 05:54:20;;;;;;;12.15;5.65;;;;;;;;;;5108241;28;20046;-71
2023/01/18 05:56:46;;;;;;;14.90;5.72;;;;;;;;;;5105434;27;20056;-70
2023/01/18 05:59:14;;;;;;;13.68;5.78;;;;;;;;;;5103436;28;20085;-71
2023/01/18 06:01:41;;;;;;;14.02;6.07;;;;;;;;;;5098388;27;20474;-70
2023/01/18 06:04:07;;;;;;;9.68;4.70;;;;;;;;;;5098896;27;20585;-70
2023/01/18 06:06:33;;;;;;;10.10;5.20;;;;;;;;;;5098024;27;21675;-71
2023/01/18 06:09:00;;;;;;;12.07;4.50;;;;;;;;;;5101253;28;20040;-71
2023/01/18 06:11:26;;;;;;;14.10;4.90;;;;;;;;;;5103197;28;20031;-70
2023/01/18 06:13:52;;;;;;;10.75;4.45;;;;;;;;;;5102944;27;21215;-70
2023/01/18 06:16:19;;;;;;;9.98;4.35;;;;;;;;;;5100042;28;20043;-70
2023/01/18 06:18:45;;;;;;;11.57;4.35;;;;;;;;;;5103293;27;20032;-71
2023/01/18 06:21:11;;;;;;;13.68;5.20;;;;;;;;;;5100344;27;20044;-71
2023/01/18 06:23:37;;;;;;;15.25;5.18;;;;;;;;;;5097908;28;20535;-70
2023/01/18 06:26:04;;;;;;;12.27;4.55;;;;;;;;;;5101688;28;20043;-71
2023/01/18 06:28:30;;;;;;;9.85;4.15;;;;;;;;;;5099896;28;20043;-71
2023/01/18 06:30:56;;;;;;;12.02;4.68;;;;;;;;;;5092953;28;20523;-70
2023/01/18 06:33:23;;;;;;;10.43;4.10;;;;;;;;;;5100425;27;20078;-70
2023/01/18 06:35:49;;;;;;;12.02;4.38;;;;;;;;;;5104658;28;20032;-71
2023/01/18 06:38:16;;;;;;;16.00;4.38;;;;;;;;;;5095103;28;20047;-70
2023/01/18 06:40:42;;;;;;;14.73;5.28;;;;;;;;;;5105880;28;20047;-70
2023/01/18 06:43:09;;;;;;;11.25;4.60;;;;;;;;;;5107213;28;20043;-70
2023/01/18 06:45:35;;;;;;;14.88;4.03;;;;;;;;;;5107612;28;20043;-71
2023/01/18 06:48:01;;;;;;;12.93;4.72;;;;;;;;;;5107510;28;20099;-70
2023/01/18 06:50:27;;;;;;;9.80;4.10;;;;;;;;;;5104886;28;20474;-70
2023/01/18 06:52:54;;;;;;;16.27;4.47;;;;;;;;;;5101886;28;20039;-70
2023/01/18 06:55:21;;;;;;;13.30;3.88;;;;;;;;;;5107011;28;20368;-70
2023/01/18 06:57:47;;;;;;;13.27;4.15;;;;;;;;;;5101232;28;20043;-70
2023/01/18 07:00:13;;;;;;;11.90;4.07;;;;;;;;;;5107820;28;20491;-70
2023/01/18 07:02:40;;;;;;;15.15;3.90;;;;;;;;;;5107487;28;20134;-70
2023/01/18 07:05:06;;;;;;;13.80;3.92;;;;;;;;;;5108048;28;20035;-70
2023/01/18 07:07:32;;;;;;;10.70;3.90;;;;;;;;;;5107651;28;20032;-70
2023/01/18 07:09:58;;;;;;;9.45;4.13;;;;;;;;;;5109767;28;20031;-70
2023/01/18 07:12:25;;;;;;;11.13;4.25;;;;;;;;;;5110070;28;20062;-70
2023/01/18 07:14:51;;;;;;;11.40;3.28;;;;;;;;;;5110812;28;20047;-70
2023/01/18 07:17:17;;;;;;;8.90;3.70;;;;;;;;;;5098579;28;20043;-70
2023/01/18 07:19:43;;;;;;;7.88;3.08;;;;;;;;;;5103099;28;20035;-70
2023/01/18 07:22:09;;;;;;;10.73;4.68;;;;;;;;;;5106581;28;20051;-70
2023/01/18 07:24:36;;;;;;;9.40;3.42;;;;;;;;;;5104901;28;20043;-70
2023/01/18 07:27:02;;;;;;;7.55;3.67;;;;;;;;;;5104321;28;20039;-70
2023/01/18 07:29:28;;;;;;;10.77;3.80;;;;;;;;;;5094025;28;20051;-70
2023/01/18 07:31:55;;;;;;;8.70;4.25;;;;;;;;;;5106230;28;20043;-70
2023/01/18 07:34:21;;;;;;;11.52;4.70;;;;;;;;;;5101300;28;21818;-70
2023/01/18 07:36:47;;;;;;;10.57;4.20;;;;;;;;;;5103639;28;20069;-70
2023/01/18 07:39:13;;;;;;;10.10;4.07;;;;;;;;;;5105110;28;20476;-71
2023/01/18 07:41:40;;;;;;;11.13;4.13;;;;;;;;;;5096847;28;20134;-71
2023/01/18 07:44:09;;;;;;;12.52;4.63;;;;;;;;;;5096931;28;20051;-71
2023/01/18 07:46:35;;;;;;;13.60;5.78;;;;;;;;;;5104859;28;20058;-71
2023/01/18 07:49:04;;;;;;;13.43;6.32;;;;;;;;;;5098898;28;20045;-71
2023/01/18 07:51:31;;;;;;;18.10;7.85;;;;;;;;;;5103888;28;20059;-71
2023/01/18 07:53:57;;;;;;;14.73;7.00;;;;;;;;;;5105131;28;20032;-71
2023/01/18 07:56:24;;;;;;;23.95;8.43;;;;;;;;;;5104462;28;20130;-70
2023/01/18 07:58:51;;;;;;;22.33;8.18;;;;;;;;;;5104221;28;20122;-70
2023/01/18 08:01:20;;;;;;;14.13;8.10;;;;;;;;;;5092691;27;20043;-70
2023/01/18 08:03:47;;;;;;;18.80;8.20;;;;;;;;;;5104111;28;20419;-69
2023/01/18 08:06:15;;;;;;;19.90;8.80;;;;;;;;;;5100630;28;20046;-70
2023/01/18 08:08:42;;;;;;;18.42;9.63;;;;;;;;;;5096507;28;20047;-69
2023/01/18 08:11:08;;;;;;;20.08;8.88;;;;;;;;;;5107573;28;20043;-69
2023/01/18 08:13:35;;;;;;;27.08;9.50;;;;;;;;;;5103760;28;20470;-69
2023/01/18 08:16:02;;;;;;;18.58;8.35;;;;;;;;;;5094738;28;20472;-68
2023/01/18 08:18:28;;;;;;;19.90;8.70;;;;;;;;;;5095637;28;20046;-69
2023/01/18 08:20:55;;;;;;;14.95;7.97;;;;;;;;;;5104083;28;20036;-69
2023/01/18 08:23:21;;;;;;;21.83;8.80;;;;;;;;;;5104125;28;20539;-69
2023/01/18 08:25:47;;;;;;;13.40;7.40;;;;;;;;;;5102608;28;20043;-68
2023/01/18 08:28:13;;;;;;;18.63;8.13;;;;;;;;;;5101473;28;20036;-69
2023/01/18 08:30:42;;;;;;;13.63;6.90;;;;;;;;;;5101950;28;20076;-69
2023/01/18 08:33:09;;;;;;;16.05;7.40;;;;;;;;;;5092375;28;20040;-69
2023/01/18 08:35:39;;;;;;;16.85;7.63;;;;;;;;;;5091935;28;20048;-67
2023/01/18 08:38:06;;;;;;;12.52;7.20;;;;;;;;;;5104780;28;20463;-69
2023/01/18 08:40:32;;;;;;;15.07;7.25;;;;;;;;;;5107228;28;20047;-67
2023/01/18 08:42:59;;;;;;;17.30;6.97;;;;;;;;;;5077968;28;20545;-68
2023/01/18 08:45:25;;;;;;;18.35;6.65;;;;;;;;;;5071641;28;20051;-68
2023/01/18 08:47:59;;;;;;;19.42;8.98;;;;;;;;;;5089054;28;20054;-68
2023/01/18 08:50:25;;;;;;;15.40;7.15;;;;;;;;;;5071145;28;20101;-68
2023/01/18 08:52:52;;;;;;;11.20;6.85;;;;;;;;;;5081711;28;20484;-67
2023/01/18 08:55:19;;;;;;;12.60;7.07;;;;;;;;;;5085144;28;20056;-68
2023/01/18 08:57:45;;;;;;;19.25;6.90;;;;;;;;;;5089531;28;20047;-68
2023/01/18 09:00:11;;;;;;;14.00;7.03;;;;;;;;;;5076171;28;20048;-68
2023/01/18 09:02:38;;;;;;;12.13;6.53;;;;;;;;;;5091614;28;20048;-68
2023/01/18 09:05:04;;;;;;;13.05;7.03;;;;;;;;;;5092802;28;20032;-69
2023/01/18 09:07:30;;;;;;;13.70;6.85;;;;;;;;;;5092194;28;20051;-68
2023/01/18 09:09:56;;;;;;;13.40;6.50;;;;;;;;;;5078130;28;20058;-68
2023/01/18 09:12:23;;;;;;;14.00;6.53;;;;;;;;;;5091892;28;20044;-69
2023/01/18 09:14:49;;;;;;;15.35;7.18;;;;;;;;;;5079277;28;20120;-69
2023/01/18 09:17:18;;;;;;;17.58;6.80;;;;;;;;;;5091416;28;20044;-69
2023/01/18 09:19:44;;;;;;;17.20;7.45;;;;;;;;;;5091221;28;20073;-69
2023/01/18 09:22:11;;;;;;;15.82;6.68;;;;;;;;;;5075763;28;20089;-69
2023/01/18 09:24:37;;;;;;;17.08;6.50;;;;;;;;;;5091493;28;20127;-69
2023/01/18 09:27:04;;;;;;;12.38;6.78;;;;;;;;;;5077103;28;20078;-70
2023/01/18 09:29:31;;;;;;;15.98;6.63;;;;;;;;;;5091157;28;20050;-69
2023/01/18 09:31:58;;;;;;;13.57;6.15;;;;;;;;;;5092301;28;20094;-69
2023/01/18 09:34:24;;;;;;;11.98;6.55;;;;;;;;;;5070731;28;20044;-69
2023/01/18 09:36:51;;;;;;;13.88;7.70;;;;;;;;;;5067850;28;20086;-69
2023/01/18 09:39:18;;;;;;;14.75;6.22;;;;;;;;;;5085705;28;20502;-69
2023/01/18 09:41:49;;;;;;;12.05;5.82;;;;;;;;;;5094742;28;20101;-69
2023/01/18 09:44:15;;;;;;;15.07;6.40;;;;;;;;;;5105408;28;20961;-69
2023/01/18 09:46:42;;;;;;;13.35;5.93;;;;;;;;;;5107737;28;20418;-69
2023/01/18 09:49:21;;;;;;;13.25;6.35;;;;;;;;;;5106492;28;20036;-69
2023/01/18 09:51:53;;;;;;;13.77;6.28;;;;;;;;;;5106581;28;20048;-69
2023/01/18 09:54:22;;;;;;;10.57;5.80;;;;;;;;;;5109357;27;20067;-69
2023/01/18 09:56:54;;;;;;;10.82;6.63;;;;;;;;;;5096190;28;20104;-69
2023/01/18 09:59:25;;;;;;;10.30;5.82;;;;;;;;;;5094686;27;20044;-69
2023/01/18 10:01:51;;;;;;;13.50;6.22;;;;;;;;;;5109277;28;20061;-70
2023/01/18 10:04:21;;;;;;;11.15;5.90;;;;;;;;;;5109580;28;20036;-70
2023/01/18 10:06:50;;;;;;;15.10;5.72;;;;;;;;;;5108604;28;20044;-70
2023/01/18 10:09:16;;;;;;;13.02;5.65;;;;;;;;;;5104181;28;20044;-70
2023/01/18 10:11:46;;;;;;;14.20;6.47;;;;;;;;;;5096712;28;20164;-70
2023/01/18 10:14:17;;;;;;;9.55;4.57;;;;;;;;;;5108214;27;20043;-70
2023/01/18 10:16:43;;;;;;;10.90;5.72;;;;;;;;;;5106994;28;20480;-71
2023/01/18 10:19:14;;;;;;;15.55;6.60;;;;;;;;;;5107441;28;20066;-71
2023/01/18 10:21:48;;;;;;;16.10;5.20;;;;;;;;;;5103658;28;20044;-70
2023/01/18 10:24:21;;;;;;;10.07;5.38;;;;;;;;;;5099805;28;20581;-71
2023/01/18 10:26:48;;;;;;;12.02;5.35;;;;;;;;;;5108070;28;20058;-71
2023/01/18 10:29:17;;;;;;;10.90;5.32;;;;;;;;;;5109214;28;20118;-71
2023/01/18 10:31:56;;;;;;;11.60;6.22;;;;;;;;;;5095017;28;20447;-70
2023/01/18 10:34:25;;;;;;;10.05;5.35;;;;;;;;;;5098677;28;20044;-70
2023/01/18 10:36:56;;;;;;;13.27;5.65;;;;;;;;;;5098278;28;20071;-70
2023/01/18 10:39:26;;;;;;;13.57;5.05;;;;;;;;;;5094501;28;20043;-70
2023/01/18 10:41:54;;;;;;;7.80;4.70;;;;;;;;;;5106510;28;21873;-71
2023/01/18 10:44:22;;;;;;;13.65;4.95;;;;;;;;;;5106077;28;20176;-71
2023/01/18 10:46:48;;;;;;;12.20;4.88;;;;;;;;;;5105360;28;20083;-70
2023/01/18 10:49:33;;;;;;;9.32;4.70;;;;;;;;;;5106289;28;20034;-70
2023/01/18 10:52:18;;;;;;;10.70;5.18;;;;;;;;;;5105035;27;20121;-71
2023/01/18 10:54:54;;;;;;;12.52;5.13;;;;;;;;;;5105397;28;20127;-70
2023/01/18 10:57:24;;;;;;;12.57;5.63;;;;;;;;;;5105611;28;20047;-71
2023/01/18 10:59:52;;;;;;;8.68;4.55;;;;;;;;;;5108809;28;20062;-71
2023/01/18 11:02:22;;;;;;;10.73;5.43;;;;;;;;;;5095442;28;20113;-71
2023/01/18 11:04:54;;;;;;;13.30;5.78;;;;;;;;;;5107164;27;20119;-71
2023/01/18 11:07:23;;;;;;;13.68;5.80;;;;;;;;;;5107012;28;20043;-71
2023/01/18 11:09:54;;;;;;;10.77;4.95;;;;;;;;;;5105529;28;20260;-71
2023/01/18 11:12:36;;;;;;;10.65;4.82;;;;;;;;;;5108446;28;20036;-71
2023/01/18 11:15:14;;;;;;;11.65;5.20;;;;;;;;;;5106277;28;20055;-71
2023/01/18 11:17:45;;;;;;;11.10;4.47;;;;;;;;;;5106679;28;20040;-71
2023/01/18 11:20:32;;;;;;;7.60;3.92;;;;;;;;;;5090910;28;20052;-71
2023/01/18 11:22:58;;;;;;;10.90;4.60;;;;;;;;;;5094375;28;20044;-71
2023/01/18 11:25:26;;;;;;;11.52;4.30;;;;;;;;;;5108092;28;20036;-71
2023/01/18 11:28:00;;;;;;;10.13;4.75;;;;;;;;;;5103380;28;20143;-71
2023/01/18 11:30:26;;;;;;;9.77;5.07;;;;;;;;;;5107064;28;20490;-71
2023/01/18 11:32:53;;;;;;;8.70;3.67;;;;;;;;;;5104587;28;20040;-71
2023/01/18 11:35:29;;;;;;;7.20;3.30;;;;;;;;;;5109129;28;20071;-70
2023/01/18 11:37:59;;;;;;;12.82;4.00;;;;;;;;;;5104069;28;20429;-71
2023/01/18 11:40:26;;;;;;;11.23;4.03;;;;;;;;;;5108247;28;20108;-70
2023/01/18 11:43:00;;;;;;;13.27;4.00;;;;;;;;;;5104834;28;20411;-71
2023/01/18 11:45:30;;;;;;;8.15;3.95;;;;;;;;;;5106102;28;20047;-70
2023/01/18 11:48:09;;;;;;;9.48;3.85;;;;;;;;;;5105030;28;20058;-71
2023/01/18 11:50:42;;;;;;;12.20;3.85;;;;;;;;;;5104127;28;20047;-70
2023/01/18 11:53:09;;;;;;;12.63;3.67;;;;;;;;;;5091981;28;20043;-70
2023/01/18 11:55:38;;;;;;;9.27;3.75;;;;;;;;;;5106933;28;20051;-70
2023/01/18 11:58:12;;;;;;;9.90;3.83;;;;;;;;;;5099589;28;20051;-70
2023/01/18 12:00:45;;;;;;;7.32;3.55;;;;;;;;;;5100056;28;20111;-70
2023/01/18 12:03:13;;;;;;;11.00;3.23;;;;;;;;;;5096346;28;20056;-71
2023/01/18 12:05:43;;;;;;;9.95;3.67;;;;;;;;;;5096154;28;20495;-70
2023/01/18 12:08:10;;;;;;;9.05;3.60;;;;;;;;;;5103452;28;20035;-70
2023/01/18 12:10:47;;;;;;;8.18;3.30;;;;;;;;;;5103370;28;20104;-70
2023/01/18 12:13:32;;;;;;;9.52;3.35;;;;;;;;;;5103368;28;20047;-71
2023/01/18 12:15:59;;;;;;;7.57;2.85;;;;;;;;;;5103487;28;20072;-71
2023/01/18 12:18:26;;;;;;;9.73;3.63;;;;;;;;;;5105913;28;20063;-71
2023/01/18 12:20:52;;;;;;;8.35;3.67;;;;;;;;;;5104797;28;20481;-71
2023/01/18 12:23:35;;;;;;;14.50;4.45;;;;;;;;;;5103720;28;20032;-71
2023/01/18 12:26:14;;;;;;;8.75;3.72;;;;;;;;;;5103358;28;20047;-70
2023/01/18 12:28:46;;;;;;;8.88;3.08;;;;;;;;;;5093438;28;20101;-70
2023/01/18 12:31:13;;;;;;;7.57;2.15;;;;;;;;;;5103344;28;20039;-71
2023/01/18 12:33:46;;;;;;;6.28;2.30;;;;;;;;;;5094808;28;20104;-70
2023/01/18 12:36:20;;;;;;;11.75;3.75;;;;;;;;;;5095497;28;20058;-71
2023/01/18 12:38:50;;;;;;;7.80;2.40;;;;;;;;;;5095383;28;20044;-71
2023/01/18 12:41:33;;;;;;;8.00;2.53;;;;;;;;;;5104492;28;20051;-70
2023/01/18 12:44:18;;;;;;;8.13;2.33;;;;;;;;;;5101525;28;20125;-71
2023/01/18 12:46:47;;;;;;;9.93;2.30;;;;;;;;;;5093795;28;20040;-71
2023/01/18 12:49:21;;;;;;;13.32;2.83;;;;;;;;;;5104985;28;20120;-71
2023/01/18 12:51:49;;;;;;;7.30;1.90;;;;;;;;;;5103342;28;20050;-71
2023/01/18 12:54:20;;;;;;;7.78;2.28;;;;;;;;;;5104561;28;20074;-71
2023/01/18 12:56:48;;;;;;;5.28;1.85;;;;;;;;;;5104400;28;20047;-70
2023/01/18 12:59:17;;;;;;;7.95;1.70;;;;;;;;;;5103852;28;20483;-71
2023/01/18 13:01:46;;;;;;;9.00;1.80;;;;;;;;;;5092680;28;20048;-71
2023/01/18 13:04:17;;;;;;;8.23;1.38;;;;;;;;;;5105533;28;20531;-71
2023/01/18 13:06:44;;;;;;;6.93;1.65;;;;;;;;;;5105433;28;20387;-71
2023/01/18 13:09:15;;;;;;;7.05;1.90;;;;;;;;;;5095026;28;20133;-70
2023/01/18 13:11:42;;;;;;;12.63;2.10;;;;;;;;;;5095687;28;20145;-70
2023/01/18 13:14:14;;;;;;;9.48;1.83;;;;;;;;;;5104253;28;20104;-70
2023/01/18 13:16:45;;;;;;;8.93;2.47;;;;;;;;;;5103751;28;20051;-70
2023/01/18 13:19:13;;;;;;;9.40;2.22;;;;;;;;;;5094403;28;20047;-70
2023/01/18 13:21:39;;;;;;;5.65;1.77;;;;;;;;;;5104200;28;20044;-70
2023/01/18 13:24:16;;;;;;;6.43;2.28;;;;;;;;;;5097221;28;20043;-70
2023/01/18 13:26:42;;;;;;;9.93;3.45;;;;;;;;;;5104965;27;20039;-77
2023/01/18 13:29:09;;;;;;;5.57;1.70;;;;;;;;;;5102598;28;20387;-70
2023/01/18 13:31:37;;;;;;;10.10;2.28;;;;;;;;;;5105265;28;20118;-70
2023/01/18 13:34:03;;;;;;;7.35;2.40;;;;;;;;;;5108226;28;20040;-69
2023/01/18 13:36:45;;;;;;;8.90;2.47;;;;;;;;;;5098458;28;20047;-71
2023/01/18 13:39:14;;;;;;;8.63;1.95;;;;;;;;;;5099534;28;20047;-70
2023/01/18 13:42:00;;;;;;;10.93;2.42;;;;;;;;;;5095410;28;20048;-70
2023/01/18 13:44:31;;;;;;;14.65;2.25;;;;;;;;;;5102676;28;20078;-69
2023/01/18 13:46:59;;;;;;;6.85;2.13;;;;;;;;;;5101989;28;20047;-70
2023/01/18 13:49:32;;;;;;;6.13;2.00;;;;;;;;;;5105287;27;20043;-70
2023/01/18 13:51:59;;;;;;;8.73;1.42;;;;;;;;;;5102831;28;20047;-70
2023/01/18 13:54:25;;;;;;;4.38;1.60;;;;;;;;;;5103627;28;20130;-69
2023/01/18 13:57:00;;;;;;;6.93;2.10;;;;;;;;;;5101634;27;20039;-70
2023/01/18 13:59:31;;;;;;;9.00;2.40;;;;;;;;;;5101547;28;20502;-70
2023/01/18 14:02:22;;;;;;;7.68;2.22;;;;;;;;;;5104259;28;20482;-70
2023/01/18 14:04:59;;;;;;;6.85;1.92;;;;;;;;;;5102627;28;20039;-70
2023/01/18 14:07:26;;;;;;;7.97;2.00;;;;;;;;;;5102906;28;20524;-70
2023/01/18 14:09:52;;;;;;;8.95;2.38;;;;;;;;;;5105075;28;20043;-70
2023/01/18 14:12:37;;;;;;;9.25;1.67;;;;;;;;;;5105090;28;20062;-69
2023/01/18 14:15:04;;;;;;;5.57;1.30;;;;;;;;;;5104810;28;20047;-71
2023/01/18 14:17:31;;;;;;;8.30;1.75;;;;;;;;;;5089884;28;21818;-70
2023/01/18 14:20:05;;;;;;;6.82;1.80;;;;;;;;;;5103905;28;20055;-71
2023/01/18 14:22:37;;;;;;;5.88;1.17;;;;;;;;;;5098077;28;20058;-70
2023/01/18 14:25:03;;;;;;;10.98;1.77;;;;;;;;;;5096441;28;20067;-70
2023/01/18 14:27:35;;;;;;;5.45;1.38;;;;;;;;;;5096039;28;20382;-70
2023/01/18 14:30:06;;;;;;;10.98;1.60;;;;;;;;;;5094942;28;20126;-70
2023/01/18 14:32:36;;;;;;;8.35;1.60;;;;;;;;;;5105447;28;20176;-70
2023/01/18 14:35:05;;;;;;;7.93;1.52;;;;;;;;;;5094786;28;20035;-70
2023/01/18 14:37:33;;;;;;;6.50;1.55;;;;;;;;;;5103657;28;20744;-70
2023/01/18 14:40:12;;;;;;;7.35;1.20;;;;;;;;;;5102878;28;20135;-71
2023/01/18 14:42:43;;;;;;;9.98;1.40;;;;;;;;;;5094564;28;20055;-71
2023/01/18 14:45:17;;;;;;;6.00;1.80;;;;;;;;;;5094614;28;20044;-71
2023/01/18 14:47:46;;;;;;;12.50;1.65;;;;;;;;;;5103919;28;20043;-71
2023/01/18 14:50:14;;;;;;;5.18;1.98;;;;;;;;;;5096450;28;20050;-71
2023/01/18 14:52:42;;;;;;;7.18;1.70;;;;;;;;;;5104063;28;20038;-71
2023/01/18 14:55:21;;;;;;;7.68;1.55;;;;;;;;;;5101809;28;20130;-71
2023/01/18 14:58:01;;;;;;;8.48;1.70;;;;;;;;;;5103591;28;20379;-71
2023/01/18 15:00:27;;;;;;;12.07;1.50;;;;;;;;;;5097378;28;20056;-71
2023/01/18 15:02:53;;;;;;;10.10;1.98;;;;;;;;;;5103852;28;20046;-69
2023/01/18 15:05:20;;;;;;;6.75;1.27;;;;;;;;;;5099595;27;20035;-72
2023/01/18 15:07:51;;;;;;;6.10;1.45;;;;;;;;;;5082583;28;20153;-71
2023/01/18 15:10:18;;;;;;;7.43;1.45;;;;;;;;;;5104206;28;20055;-71
2023/01/18 15:12:46;;;;;;;5.38;1.45;;;;;;;;;;5102473;28;20135;-72